Impacts METAR Board
IDs:

KJCT - Junction/Kimble Cnty, TX, US

Updated at: 0500 UTC 19 Aug 2019
Potential Impact None Slight Moderate High
Time 18/17Z 18/18Z 18/19Z 18/20Z 18/21Z 18/22Z 18/23Z 19/00Z 19/01Z 19/02Z 19/03Z 19/04Z 19/05Z
Temp93 95 98 100 101 101 101 100 97 93 91 90 88
Dewpt66 66 65 63 62 63 61 62 64 64 66 66 67
Altim29.94 29.92 29.91 29.89 29.87 29.86 29.85 29.85 29.86 29.88 29.91 29.92 29.95
VIS10 10 10 10 10 10 10 10 10 10 10 10 10
CIG-- -- -- -- -- -- -- -- -- -- -- -- --
CoverCLRCLRCLRCLRCLRCLRCLRCLRCLRCLRCLRCLRCLR
FltCatVFRVFRVFRVFRVFRVFRVFRVFRVFRVFRVFRVFRVFR
WX--------------------------
WDir190220220001900140140130150160140
WSpd10 11 9 3 4 6 5 10 13 7 6 12 11
WGst-- 17 -- -- -- -- -- -- -- -- -- -- --
Raw hourly METARs
KJCT 181651Z AUTO 19010KT 10SM CLR 34/19 A2994 RMK AO2 SLP094 T03390189
KJCT 181751Z AUTO 22011G17KT 10SM CLR 35/19 A2992 RMK AO2 SLP090 T03500189 10356 20244 58008
KJCT 181851Z AUTO 22009KT 10SM CLR 37/18 A2991 RMK AO2 SLP084 T03670183
KJCT 181951Z AUTO VRB03KT 10SM CLR 38/17 A2989 RMK AO2 SLP078 T03780172
KJCT 182051Z AUTO VRB04KT 10SM CLR 38/17 A2987 RMK AO2 SLP072 T03830167 58016
KJCT 182151Z AUTO 19006KT 10SM CLR 38/17 A2986 RMK AO2 SLP067 T03830172
KJCT 182251Z AUTO VRB05KT 10SM CLR 38/16 A2985 RMK AO2 SLP065 T03830161
KJCT 182351Z AUTO 14010KT 10SM CLR 38/17 A2985 RMK AO2 SLP064 T03780167 10394 20350 56008
KJCT 190051Z AUTO 14013KT 10SM CLR 36/18 A2986 RMK AO2 SLP069 T03610178
KJCT 190151Z AUTO 13007KT 10SM CLR 34/18 A2988 RMK AO2 SLP077 T03390178
KJCT 190251Z AUTO 15006KT 10SM CLR 33/19 A2991 RMK AO2 SLP085 T03280189 53019
KJCT 190351Z AUTO 16012KT 10SM CLR 32/19 A2992 RMK AO2 SLP090 T03220189
KJCT 190451Z AUTO 14011KT 10SM CLR 31/19 A2995 RMK AO2 SLP096 T03110194



Page loaded:  05:47 UTC  |   10:47 PM Pacific  |   11:47 PM Mountain  |   12:47 AM Central  |   01:47 AM Eastern

 

ADVISORIES

FORECASTS

FORECASTS

OBSERVATIONS

USER TOOLS

ABOUT US